createdAt,value
2022-07-31T00:00:42.038Z,101320.81
2022-07-31T00:03:09.095Z,101312.53
2022-07-31T00:05:38.699Z,101314.84
2022-07-31T00:08:08.884Z,101313.00
2022-07-31T00:10:36.258Z,101307.28
2022-07-31T00:13:03.085Z,101311.03
2022-07-31T00:15:30.191Z,101313.63
2022-07-31T00:17:57.999Z,101310.06
2022-07-31T00:20:24.750Z,101313.91
2022-07-31T00:22:51.537Z,101308.59
2022-07-31T00:25:19.057Z,101307.31
2022-07-31T00:27:45.950Z,101308.09
2022-07-31T00:30:17.642Z,101310.03
2022-07-31T00:32:48.975Z,101304.91
2022-07-31T00:35:18.762Z,101298.25
2022-07-31T00:37:45.791Z,101306.81
2022-07-31T00:40:15.732Z,101299.88
2022-07-31T00:42:42.575Z,101303.50
2022-07-31T00:45:10.352Z,101291.44
2022-07-31T00:47:40.300Z,101306.16
2022-07-31T00:50:08.018Z,101302.22
2022-07-31T00:52:34.849Z,101290.44
2022-07-31T00:55:01.798Z,101284.97
2022-07-31T00:57:28.611Z,101289.09
2022-07-31T00:59:55.352Z,101297.25
2022-07-31T01:02:22.205Z,101303.97
2022-07-31T01:04:48.990Z,101300.66
2022-07-31T01:07:16.234Z,101294.81
2022-07-31T01:09:43.023Z,101304.81
2022-07-31T01:12:26.335Z,101299.88
2022-07-31T01:14:55.734Z,101295.13
2022-07-31T01:17:23.536Z,101298.38
2022-07-31T01:19:51.037Z,101297.69
2022-07-31T01:22:33.170Z,101298.03
2022-07-31T01:25:11.727Z,101308.13
2022-07-31T01:28:21.718Z,101305.41
2022-07-31T01:31:04.982Z,101294.47
2022-07-31T01:33:43.488Z,101297.31
2022-07-31T01:36:14.150Z,101300.72
2022-07-31T01:38:45.786Z,101304.63
2022-07-31T01:41:13.990Z,101302.72
2022-07-31T01:43:42.193Z,101297.47
2022-07-31T01:46:12.777Z,101299.50
2022-07-31T01:48:40.086Z,101289.16
2022-07-31T01:51:09.135Z,101286.53
2022-07-31T01:53:37.102Z,101287.66
2022-07-31T01:56:04.571Z,101294.34
2022-07-31T01:58:38.638Z,101295.47
2022-07-31T02:01:14.265Z,101295.31
2022-07-31T02:03:43.045Z,101300.16
2022-07-31T02:06:14.544Z,101293.75
2022-07-31T02:08:43.708Z,101285.72
2022-07-31T02:11:14.217Z,101294.88
2022-07-31T02:13:41.127Z,101286.84
2022-07-31T02:16:08.575Z,101291.38
2022-07-31T02:18:37.286Z,101297.28
2022-07-31T02:21:15.325Z,101293.19
2022-07-31T02:23:42.125Z,101307.72
2022-07-31T02:26:09.172Z,101295.09
2022-07-31T02:28:38.268Z,101293.19
2022-07-31T02:31:07.055Z,101304.88
2022-07-31T02:33:34.176Z,101286.75
2022-07-31T02:36:01.717Z,101287.44
2022-07-31T02:38:30.942Z,101274.50
2022-07-31T02:40:59.038Z,101272.94
2022-07-31T02:43:28.794Z,101275.78
2022-07-31T02:45:57.536Z,101267.75
2022-07-31T02:48:25.868Z,101271.19
2022-07-31T02:50:54.361Z,101268.81
2022-07-31T02:53:21.317Z,101270.22
2022-07-31T02:55:51.955Z,101271.44
2022-07-31T02:58:18.755Z,101273.34
2022-07-31T03:00:46.155Z,101277.16
2022-07-31T03:03:14.011Z,101273.09
2022-07-31T03:05:42.071Z,101261.63
2022-07-31T03:08:08.819Z,101277.13
2022-07-31T03:10:39.400Z,101266.75
2022-07-31T03:13:06.904Z,101275.97
2022-07-31T03:15:34.081Z,101268.66
2022-07-31T03:18:01.118Z,101274.22
2022-07-31T03:20:40.281Z,101274.47
2022-07-31T03:23:11.268Z,101277.09
2022-07-31T03:25:49.009Z,101266.84
2022-07-31T03:28:15.889Z,101275.25
2022-07-31T03:30:43.300Z,101274.28
2022-07-31T03:33:10.140Z,101275.50
2022-07-31T03:35:42.417Z,101271.69
2022-07-31T03:38:38.713Z,101273.59
2022-07-31T03:41:01.375Z,101264.41
2022-07-31T03:43:30.639Z,101272.91
2022-07-31T03:46:17.195Z,101276.19
2022-07-31T03:48:44.541Z,101267.25
2022-07-31T03:51:13.473Z,101268.09
2022-07-31T03:53:41.640Z,101277.09
2022-07-31T03:56:11.994Z,101278.09
2022-07-31T03:58:39.159Z,101273.75
2022-07-31T04:01:10.336Z,101279.84
2022-07-31T04:03:39.596Z,101274.28
2022-07-31T04:06:28.206Z,101278.72
2022-07-31T04:08:56.027Z,101274.91
2022-07-31T04:11:22.935Z,101273.78
2022-07-31T04:13:49.800Z,101275.78
2022-07-31T04:16:16.806Z,101273.97
2022-07-31T04:18:48.498Z,101279.44
2022-07-31T04:21:20.800Z,101289.34
2022-07-31T04:23:49.475Z,101283.16
2022-07-31T04:26:31.328Z,101285.16
2022-07-31T04:29:01.219Z,101286.91
2022-07-31T04:31:28.203Z,101276.03
2022-07-31T04:33:57.007Z,101280.94
2022-07-31T04:36:30.309Z,101285.03
2022-07-31T04:39:00.711Z,101283.03
2022-07-31T04:41:28.685Z,101279.22
2022-07-31T04:43:57.933Z,101283.81
2022-07-31T04:46:26.513Z,101276.25
2022-07-31T04:48:54.858Z,101279.66
2022-07-31T04:51:23.245Z,101288.38
2022-07-31T04:53:50.478Z,101283.69
2022-07-31T04:56:42.258Z,101286.88
2022-07-31T04:59:13.980Z,101282.97
2022-07-31T05:01:44.075Z,101282.78
2022-07-31T05:04:12.265Z,101286.03
2022-07-31T05:06:40.354Z,101288.28
2022-07-31T05:09:12.428Z,101294.94
2022-07-31T05:11:43.568Z,101284.97
2022-07-31T05:14:11.925Z,101288.50
2022-07-31T05:16:38.813Z,101295.41
2022-07-31T05:19:13.597Z,101299.81
2022-07-31T05:22:02.541Z,101300.00
2022-07-31T05:24:43.174Z,101290.91
2022-07-31T05:27:13.091Z,101301.63
2022-07-31T05:29:41.929Z,101297.47
2022-07-31T05:32:09.075Z,101296.81
2022-07-31T05:34:36.943Z,101300.59
2022-07-31T05:37:03.998Z,101285.50
2022-07-31T05:39:32.618Z,101277.56
2022-07-31T05:42:18.005Z,101308.22
2022-07-31T05:45:08.976Z,101310.25
2022-07-31T05:47:40.344Z,101302.09
2022-07-31T05:50:09.559Z,101309.06
2022-07-31T05:52:36.528Z,101298.31
2022-07-31T05:55:35.365Z,101301.16
2022-07-31T05:58:21.094Z,101307.91
2022-07-31T06:00:50.343Z,101302.44
2022-07-31T06:03:23.376Z,101304.97
2022-07-31T06:06:05.525Z,101312.59
2022-07-31T06:08:32.490Z,101320.13
2022-07-31T06:11:00.219Z,101305.81
2022-07-31T06:13:27.815Z,101314.66
2022-07-31T06:15:56.248Z,101305.09
2022-07-31T06:18:23.204Z,101313.66
2022-07-31T06:20:50.420Z,101303.63
2022-07-31T06:23:22.983Z,101296.81
2022-07-31T06:26:03.727Z,101293.06
2022-07-31T06:28:47.336Z,101289.97
2022-07-31T06:31:22.257Z,101294.94
2022-07-31T06:33:53.505Z,101301.88
2022-07-31T06:36:24.179Z,101307.16
2022-07-31T06:38:57.787Z,101293.81
2022-07-31T06:41:47.666Z,101301.75
2022-07-31T06:44:30.394Z,101304.38
2022-07-31T06:47:21.065Z,101305.34
2022-07-31T06:49:50.988Z,101300.84
2022-07-31T06:52:18.257Z,101298.88
2022-07-31T06:54:46.204Z,101301.81
2022-07-31T06:57:12.987Z,101299.50
2022-07-31T06:59:40.897Z,101304.22
2022-07-31T07:02:08.829Z,101295.88
2022-07-31T07:05:04.784Z,101299.31
2022-07-31T07:07:22.816Z,101299.44
2022-07-31T07:09:51.111Z,101303.81
2022-07-31T07:12:36.150Z,101304.41
2022-07-31T07:15:02.944Z,101301.97
2022-07-31T07:17:29.974Z,101296.22
2022-07-31T07:19:57.234Z,101295.06
2022-07-31T07:22:29.961Z,101294.50
2022-07-31T07:25:01.249Z,101291.47
2022-07-31T07:27:28.696Z,101288.16
2022-07-31T07:29:56.136Z,101283.31
2022-07-31T07:32:23.626Z,101275.78
2022-07-31T07:34:59.591Z,101268.63
2022-07-31T07:37:49.732Z,101263.59
2022-07-31T07:40:19.440Z,101271.06
2022-07-31T07:42:46.630Z,101270.44
2022-07-31T07:45:14.073Z,101255.28
2022-07-31T07:47:53.784Z,101258.47
2022-07-31T07:50:31.263Z,101257.78
2022-07-31T07:53:18.459Z,101248.34
2022-07-31T07:56:08.052Z,101251.88
2022-07-31T07:59:05.605Z,101238.41
2022-07-31T08:02:02.935Z,101246.44
2022-07-31T08:04:32.465Z,101245.19
2022-07-31T08:06:59.294Z,101238.84
2022-07-31T08:09:31.657Z,101244.91
2022-07-31T08:12:32.997Z,101249.22
2022-07-31T08:15:06.522Z,101250.25
2022-07-31T08:17:45.877Z,101242.75
2022-07-31T08:20:14.137Z,101242.59
2022-07-31T08:22:40.962Z,101247.69
2022-07-31T08:25:15.100Z,101244.66
2022-07-31T08:27:43.888Z,101242.38
2022-07-31T08:30:16.020Z,101247.94
2022-07-31T08:32:42.940Z,101249.41
2022-07-31T08:35:31.611Z,101243.63
2022-07-31T08:38:03.521Z,101245.38
2022-07-31T08:40:43.049Z,101245.16
2022-07-31T08:43:31.207Z,101242.44
2022-07-31T08:46:02.842Z,101235.91
2022-07-31T08:48:33.497Z,101230.84
2022-07-31T08:51:03.606Z,101220.00
2022-07-31T08:54:08.241Z,101215.69
2022-07-31T08:56:35.691Z,101223.25
2022-07-31T08:59:03.356Z,101215.81
2022-07-31T09:01:30.691Z,101216.59
2022-07-31T09:03:58.809Z,101211.75
2022-07-31T09:06:25.955Z,101221.06
2022-07-31T09:08:52.730Z,101209.69
2022-07-31T09:11:19.659Z,101199.59
2022-07-31T09:14:03.777Z,101199.75
2022-07-31T09:16:54.730Z,101200.72
2022-07-31T09:19:51.674Z,101199.84
2022-07-31T09:22:27.918Z,101201.66
2022-07-31T09:25:16.479Z,101193.28
2022-07-31T09:27:48.370Z,101198.56
2022-07-31T09:30:16.346Z,101195.13
2022-07-31T09:33:14.052Z,101200.31
2022-07-31T09:35:58.692Z,101191.16
2022-07-31T09:38:34.381Z,101186.66
2022-07-31T09:41:55.830Z,101187.47
2022-07-31T09:44:15.901Z,101188.34
2022-07-31T09:46:45.330Z,101177.16
2022-07-31T09:49:12.519Z,101191.34
2022-07-31T09:51:42.049Z,101187.97
2022-07-31T09:54:24.732Z,101183.16
2022-07-31T09:57:13.902Z,101182.97
2022-07-31T09:59:44.342Z,101181.88
2022-07-31T10:02:14.739Z,101183.41
2022-07-31T10:04:44.310Z,101177.31
2022-07-31T10:07:32.026Z,101183.88
2022-07-31T10:10:08.619Z,101176.28
2022-07-31T10:13:04.091Z,101181.78
2022-07-31T10:15:33.256Z,101179.50
2022-07-31T10:18:35.731Z,101174.31
2022-07-31T10:21:38.887Z,101169.38
2022-07-31T10:24:29.288Z,101169.41
2022-07-31T10:27:10.590Z,101165.97
2022-07-31T10:29:40.063Z,101157.47
2022-07-31T10:32:07.717Z,101155.34
2022-07-31T10:34:38.055Z,101153.84
2022-07-31T10:37:12.160Z,101153.97
2022-07-31T10:40:15.969Z,101151.97
2022-07-31T10:43:09.902Z,101152.69
2022-07-31T10:45:54.130Z,101144.91
2022-07-31T10:48:54.226Z,101147.19
2022-07-31T10:51:51.182Z,101140.72
2022-07-31T10:54:42.962Z,101148.03
2022-07-31T10:57:34.586Z,101142.59
2022-07-31T11:00:30.217Z,101138.00
2022-07-31T11:03:17.695Z,101140.22
2022-07-31T11:06:03.334Z,101137.84
2022-07-31T11:08:52.381Z,101130.66
2022-07-31T11:11:38.230Z,101137.50
2022-07-31T11:14:33.045Z,101131.50
2022-07-31T11:17:18.666Z,101131.84
2022-07-31T11:20:25.069Z,101135.16
2022-07-31T11:23:03.474Z,101117.50
2022-07-31T11:25:32.471Z,101127.03
2022-07-31T11:28:19.000Z,101117.81
2022-07-31T11:31:03.958Z,101117.63
2022-07-31T11:33:44.022Z,101110.00
2022-07-31T11:36:20.222Z,101119.38
2022-07-31T11:38:51.336Z,101109.63
2022-07-31T11:41:22.828Z,101103.63
2022-07-31T11:43:51.826Z,101104.47
2022-07-31T11:46:32.156Z,101103.75
2022-07-31T11:49:00.412Z,101099.63
2022-07-31T11:51:28.140Z,101112.19
2022-07-31T11:53:57.343Z,101105.09
2022-07-31T11:56:26.242Z,101112.34
2022-07-31T11:58:55.608Z,101105.22
2022-07-31T12:01:29.661Z,101105.06
2022-07-31T12:04:07.531Z,101100.81
2022-07-31T12:06:37.134Z,101109.44
2022-07-31T12:09:04.404Z,101101.50
2022-07-31T12:11:33.996Z,101105.16
2022-07-31T12:14:01.087Z,101104.41
2022-07-31T12:16:38.921Z,101095.38
2022-07-31T12:19:05.838Z,101092.97
2022-07-31T12:21:40.630Z,101086.38
2022-07-31T12:24:13.243Z,101087.47
2022-07-31T12:26:44.043Z,101092.41
2022-07-31T12:29:12.682Z,101082.19
2022-07-31T12:31:54.382Z,101076.28
2022-07-31T12:34:29.805Z,101071.75
2022-07-31T12:36:59.728Z,101070.41
2022-07-31T12:39:26.661Z,101065.06
2022-07-31T12:42:30.713Z,101063.81
2022-07-31T12:45:01.331Z,101055.28
2022-07-31T12:47:52.063Z,101054.84
2022-07-31T12:50:21.032Z,101055.28
2022-07-31T12:52:47.873Z,101058.69
2022-07-31T12:55:17.236Z,101050.38
2022-07-31T12:57:50.640Z,101052.72
2022-07-31T13:00:19.296Z,101038.84
2022-07-31T13:02:46.510Z,101038.84
2022-07-31T13:05:13.363Z,101038.94
2022-07-31T13:07:43.659Z,101039.56
2022-07-31T13:10:20.975Z,101032.88
2022-07-31T13:12:51.141Z,101038.47
2022-07-31T13:15:20.984Z,101034.47
2022-07-31T13:17:50.869Z,101029.09
2022-07-31T13:20:18.586Z,101025.41
2022-07-31T13:22:45.430Z,101012.56
2022-07-31T13:25:12.414Z,101021.78
2022-07-31T13:27:39.663Z,101015.75
2022-07-31T13:30:09.218Z,101015.06
2022-07-31T13:32:36.389Z,101016.00
2022-07-31T13:35:24.283Z,101007.44
2022-07-31T13:37:50.638Z,101010.84
2022-07-31T13:40:19.197Z,101017.53
2022-07-31T13:42:45.926Z,101010.25
2022-07-31T13:45:12.688Z,101000.94
2022-07-31T13:47:51.504Z,101002.78
2022-07-31T13:50:19.558Z,100997.34
2022-07-31T13:52:47.566Z,100990.63
2022-07-31T13:55:14.585Z,100985.63
2022-07-31T13:57:41.437Z,100992.66
2022-07-31T14:00:09.003Z,100990.78
2022-07-31T14:02:35.780Z,100974.59
2022-07-31T14:05:02.864Z,100974.91
2022-07-31T14:07:45.175Z,100974.41
2022-07-31T14:10:19.956Z,100976.16
2022-07-31T14:12:47.388Z,100975.44
2022-07-31T14:15:14.237Z,100974.41
2022-07-31T14:17:41.113Z,100970.81
2022-07-31T14:20:08.585Z,100956.13
2022-07-31T14:22:36.026Z,100965.75
2022-07-31T14:25:03.061Z,100963.25
2022-07-31T14:27:30.101Z,100954.44
2022-07-31T14:29:56.912Z,100959.72
2022-07-31T14:32:24.299Z,100950.59
2022-07-31T14:34:51.539Z,100952.63
2022-07-31T14:37:18.376Z,100950.06
2022-07-31T14:39:45.182Z,100944.25
2022-07-31T14:42:12.353Z,100951.16
2022-07-31T14:44:42.087Z,100948.31
2022-07-31T14:47:10.406Z,100951.34
2022-07-31T14:50:07.403Z,100941.25
2022-07-31T14:52:24.606Z,100953.38
2022-07-31T14:54:53.959Z,100948.81
2022-07-31T14:57:22.392Z,100941.47
2022-07-31T14:59:50.366Z,100944.13
2022-07-31T15:02:22.175Z,100948.22
2022-07-31T15:04:50.023Z,100939.63
2022-07-31T15:10:08.047Z,100954.00
2022-07-31T15:12:35.074Z,100955.56
2022-07-31T15:15:02.136Z,100944.56
2022-07-31T15:17:29.105Z,100949.22
2022-07-31T15:19:55.899Z,100945.06
2022-07-31T15:22:22.817Z,100948.69
2022-07-31T15:24:50.288Z,100940.13
2022-07-31T15:27:22.126Z,100944.09
2022-07-31T15:30:04.457Z,100939.97
2022-07-31T15:32:38.933Z,100940.66
2022-07-31T15:35:08.198Z,100948.91
2022-07-31T15:37:36.950Z,100942.22
2022-07-31T15:40:06.060Z,100944.13
2022-07-31T15:42:34.094Z,100933.59
2022-07-31T15:45:01.117Z,100938.78
2022-07-31T15:47:28.174Z,100937.22
2022-07-31T15:49:55.241Z,100928.66
2022-07-31T15:52:22.432Z,100930.75
2022-07-31T15:54:51.803Z,100937.78
2022-07-31T15:57:23.600Z,100936.94
2022-07-31T15:59:51.825Z,100932.97
2022-07-31T16:02:18.707Z,100930.09
2022-07-31T16:04:51.524Z,100935.09
2022-07-31T16:08:32.163Z,100930.78
2022-07-31T16:10:15.675Z,100926.34
2022-07-31T16:12:47.430Z,100919.81
2022-07-31T16:15:16.994Z,100919.50
2022-07-31T16:17:44.890Z,100921.53
2022-07-31T16:20:25.535Z,100914.66
2022-07-31T16:22:56.093Z,100914.84
2022-07-31T16:25:24.286Z,100918.28
2022-07-31T16:27:52.570Z,100914.88
2022-07-31T16:30:19.545Z,100913.47
2022-07-31T16:32:46.315Z,100925.66
2022-07-31T16:35:13.424Z,100910.22
2022-07-31T16:37:51.067Z,100906.44
2022-07-31T16:40:28.246Z,100915.53
2022-07-31T16:42:57.738Z,100906.09
2022-07-31T16:45:24.680Z,100909.88
2022-07-31T16:47:52.365Z,100907.47
2022-07-31T16:50:19.637Z,100898.03
2022-07-31T16:52:48.292Z,100905.06
2022-07-31T16:55:17.056Z,100903.16
2022-07-31T16:57:44.047Z,100896.97
2022-07-31T17:00:11.482Z,100909.88
2022-07-31T17:02:38.523Z,100894.25
2022-07-31T17:05:05.750Z,100898.19
2022-07-31T17:07:32.596Z,100890.50
2022-07-31T17:09:59.391Z,100894.25
2022-07-31T17:12:26.196Z,100900.09
2022-07-31T17:14:52.940Z,100897.50
2022-07-31T17:17:20.839Z,100902.31
2022-07-31T17:19:47.725Z,100896.47
2022-07-31T17:22:17.935Z,100890.13
2022-07-31T17:24:50.680Z,100894.22
2022-07-31T17:27:18.470Z,100893.84
2022-07-31T17:29:45.535Z,100897.97
2022-07-31T17:32:12.647Z,100891.09
2022-07-31T17:34:40.374Z,100895.91
2022-07-31T17:37:07.975Z,100900.53
2022-07-31T17:39:36.240Z,100899.16
2022-07-31T17:42:03.089Z,100889.19
2022-07-31T17:44:30.324Z,100892.47
2022-07-31T17:46:57.825Z,100889.72
2022-07-31T17:49:25.681Z,100892.47
2022-07-31T17:52:07.726Z,100885.44
2022-07-31T17:54:34.634Z,100902.22
2022-07-31T17:57:01.652Z,100893.44
2022-07-31T17:59:28.803Z,100896.38
2022-07-31T18:02:04.297Z,100891.38
2022-07-31T18:04:33.891Z,100893.44
2022-07-31T18:07:01.968Z,100887.78
2022-07-31T18:09:28.939Z,100892.34
2022-07-31T18:11:58.831Z,100895.56
2022-07-31T18:14:25.979Z,100898.28
2022-07-31T18:16:53.242Z,100901.84
2022-07-31T18:19:21.848Z,100893.59
2022-07-31T18:21:50.197Z,100896.13
2022-07-31T18:24:17.155Z,100891.78
2022-07-31T18:26:44.129Z,100889.38
2022-07-31T18:29:11.166Z,100894.63
2022-07-31T18:31:38.530Z,100892.50
2022-07-31T18:34:05.687Z,100897.78
2022-07-31T18:36:35.798Z,100899.44
2022-07-31T18:39:04.172Z,100899.38
2022-07-31T18:41:31.414Z,100891.81
2022-07-31T18:43:58.517Z,100893.31
2022-07-31T18:46:25.681Z,100895.53
2022-07-31T18:48:57.131Z,100902.66
2022-07-31T18:51:28.279Z,100895.09
2022-07-31T18:53:56.422Z,100898.72
2022-07-31T18:56:24.520Z,100899.06
2022-07-31T18:58:52.136Z,100900.69
2022-07-31T19:01:19.046Z,100896.56
2022-07-31T19:03:45.834Z,100897.72
2022-07-31T19:06:12.767Z,100905.38
2022-07-31T19:08:39.662Z,100906.72
2022-07-31T19:11:06.699Z,100907.50
2022-07-31T19:13:33.771Z,100905.94
2022-07-31T19:16:01.004Z,100904.69
2022-07-31T19:18:28.506Z,100909.44
2022-07-31T19:21:21.286Z,100908.19
2022-07-31T19:23:43.818Z,100903.63
2022-07-31T19:26:11.244Z,100906.69
2022-07-31T19:28:39.939Z,100910.84
2022-07-31T19:31:07.543Z,100908.41
2022-07-31T19:33:34.454Z,100909.03
2022-07-31T19:36:02.814Z,100911.06
2022-07-31T19:38:31.789Z,100918.88
2022-07-31T19:40:58.846Z,100914.72
2022-07-31T19:43:25.909Z,100911.56
2022-07-31T19:46:09.435Z,100911.88
2022-07-31T19:48:41.913Z,100907.88
2022-07-31T19:51:10.925Z,100910.91
2022-07-31T19:53:37.962Z,100907.47
2022-07-31T19:56:07.770Z,100913.94
2022-07-31T19:58:36.207Z,100903.44
2022-07-31T20:01:05.408Z,100905.78
2022-07-31T20:03:32.644Z,100907.81
2022-07-31T20:06:00.096Z,100907.97
2022-07-31T20:08:27.114Z,100907.25
2022-07-31T20:11:02.112Z,100901.06
2022-07-31T20:13:30.431Z,100886.09
2022-07-31T20:15:58.336Z,100896.91
2022-07-31T20:18:29.102Z,100896.19
2022-07-31T20:20:58.226Z,100896.31
2022-07-31T20:23:25.964Z,100890.28
2022-07-31T20:25:52.782Z,100897.50
2022-07-31T20:28:19.811Z,100898.63
2022-07-31T20:30:46.807Z,100894.19
2022-07-31T20:33:13.679Z,100896.91
2022-07-31T20:35:49.450Z,100891.59
2022-07-31T20:38:21.218Z,100879.97
2022-07-31T20:40:53.502Z,100883.88
2022-07-31T20:43:21.798Z,100880.41
2022-07-31T20:45:48.651Z,100892.47
2022-07-31T20:48:17.993Z,100889.03
2022-07-31T20:50:47.765Z,100883.03
2022-07-31T20:53:15.571Z,100883.88
2022-07-31T20:55:47.153Z,100878.00
2022-07-31T20:58:14.088Z,100880.00
2022-07-31T21:00:41.547Z,100888.66
2022-07-31T21:03:08.426Z,100879.44
2022-07-31T21:05:35.384Z,100876.72
2022-07-31T21:08:02.259Z,100873.13
2022-07-31T21:10:29.941Z,100865.97
2022-07-31T21:12:57.372Z,100865.97
2022-07-31T21:15:43.941Z,100867.81
2022-07-31T21:18:16.040Z,100866.25
2022-07-31T21:20:52.302Z,100860.78
2022-07-31T21:23:27.579Z,100852.59
2022-07-31T21:25:56.732Z,100840.97
2022-07-31T21:28:25.287Z,100843.84
2022-07-31T21:30:54.105Z,100842.13
2022-07-31T21:33:20.998Z,100841.84
2022-07-31T21:35:48.126Z,100847.59
2022-07-31T21:38:15.987Z,100840.72
2022-07-31T21:40:43.858Z,100843.13
2022-07-31T21:43:11.162Z,100854.22
2022-07-31T21:45:55.610Z,100849.06
2022-07-31T21:48:28.035Z,100853.78
2022-07-31T21:50:55.094Z,100853.50
2022-07-31T21:53:22.452Z,100873.72
2022-07-31T21:55:49.367Z,100881.50
2022-07-31T21:58:17.785Z,100881.63
2022-07-31T22:00:44.748Z,100883.22
2022-07-31T22:03:11.782Z,100882.50
2022-07-31T22:05:57.258Z,100884.06
2022-07-31T22:08:24.091Z,100869.28
2022-07-31T22:10:51.947Z,100884.06
2022-07-31T22:13:19.653Z,100883.34
2022-07-31T22:15:54.283Z,100889.94
2022-07-31T22:18:34.298Z,100878.84
2022-07-31T22:21:02.942Z,100876.88
2022-07-31T22:23:29.802Z,100881.97
2022-07-31T22:25:56.577Z,100885.72
2022-07-31T22:28:24.765Z,100881.97
2022-07-31T22:30:52.220Z,100887.44
2022-07-31T22:33:19.774Z,100885.25
2022-07-31T22:35:58.973Z,100885.06
2022-07-31T22:38:30.884Z,100879.84
2022-07-31T22:41:01.781Z,100890.94
2022-07-31T22:44:13.886Z,100893.38
2022-07-31T22:46:16.881Z,100889.88
2022-07-31T22:48:45.821Z,100887.16
2022-07-31T22:51:14.265Z,100891.34
2022-07-31T22:53:43.516Z,100894.53
2022-07-31T22:56:10.242Z,100898.69
2022-07-31T22:58:37.002Z,100901.84
2022-07-31T23:01:04.223Z,100898.31
2022-07-31T23:03:30.969Z,100914.81
2022-07-31T23:06:03.590Z,100916.66
2022-07-31T23:08:44.425Z,100904.91
2022-07-31T23:11:11.247Z,100899.53
2022-07-31T23:13:39.658Z,100898.31
2022-07-31T23:16:06.529Z,100898.13
2022-07-31T23:18:33.266Z,100893.56
2022-07-31T23:21:00.074Z,100897.56
2022-07-31T23:23:26.789Z,100895.97
2022-07-31T23:25:53.513Z,100893.06
2022-07-31T23:28:20.416Z,100891.78
2022-07-31T23:30:47.139Z,100893.78
2022-07-31T23:33:17.136Z,100892.53
2022-07-31T23:35:43.946Z,100897.56
2022-07-31T23:38:10.786Z,100898.44
2022-07-31T23:40:37.731Z,100902.56
2022-07-31T23:43:04.509Z,100894.53
2022-07-31T23:45:31.253Z,100908.78
2022-07-31T23:47:58.915Z,100898.66
2022-07-31T23:50:25.944Z,100891.69
2022-07-31T23:52:52.678Z,100886.44
2022-07-31T23:55:19.649Z,100880.59
2022-07-31T23:57:46.400Z,100884.22
